createdAt,value
2023-05-06T00:00:55.438Z,83.34
2023-05-06T00:01:55.436Z,84.14
2023-05-06T00:02:55.597Z,84.67
2023-05-06T00:03:55.540Z,84.58
2023-05-06T00:04:55.467Z,84.20
2023-05-06T00:05:55.422Z,84.77
2023-05-06T00:06:55.435Z,84.58
2023-05-06T00:07:55.407Z,84.86
2023-05-06T00:08:55.424Z,84.77
2023-05-06T00:09:55.420Z,84.58
2023-05-06T00:10:55.411Z,84.48
2023-05-06T00:11:55.405Z,84.67
2023-05-06T00:12:55.491Z,84.67
2023-05-06T00:13:55.425Z,84.58
2023-05-06T00:14:55.391Z,85.15
2023-05-06T00:15:55.431Z,85.44
2023-05-06T00:16:55.455Z,85.15
2023-05-06T00:17:55.429Z,85.72
2023-05-06T00:18:55.385Z,85.72
2023-05-06T00:19:55.379Z,86.01
2023-05-06T00:20:55.379Z,86.49
2023-05-06T00:21:55.395Z,86.68
2023-05-06T00:22:55.390Z,86.39
2023-05-06T00:23:55.366Z,86.20
2023-05-06T00:24:55.357Z,86.10
2023-05-06T00:25:55.358Z,86.20
2023-05-06T00:26:55.350Z,86.68
2023-05-06T00:27:55.352Z,86.68
2023-05-06T00:28:55.349Z,87.06
2023-05-06T00:29:55.352Z,87.54
2023-05-06T00:30:55.352Z,87.44
2023-05-06T00:31:55.369Z,87.54
2023-05-06T00:32:55.973Z,88.11
2023-05-06T00:33:55.334Z,88.20
2023-05-06T00:34:55.352Z,87.54
2023-05-06T00:35:55.334Z,87.44
2023-05-06T00:36:55.341Z,87.54
2023-05-06T00:37:55.318Z,87.44
2023-05-06T00:38:55.314Z,87.92
2023-05-06T00:39:55.334Z,87.59
2023-05-06T00:40:55.323Z,87.78
2023-05-06T00:41:55.314Z,87.87
2023-05-06T00:42:55.304Z,87.97
2023-05-06T00:43:55.298Z,87.87
2023-05-06T00:44:55.337Z,88.35
2023-05-06T00:45:55.346Z,88.54
2023-05-06T00:46:55.299Z,88.07
2023-05-06T00:47:55.394Z,87.97
2023-05-06T00:48:55.327Z,88.07
2023-05-06T00:49:55.290Z,87.97
2023-05-06T00:50:55.309Z,88.16
2023-05-06T00:51:55.280Z,88.16
2023-05-06T00:52:55.302Z,88.73
2023-05-06T00:53:55.272Z,88.16
2023-05-06T00:54:55.268Z,88.16
2023-05-06T00:55:55.263Z,88.73
2023-05-06T00:56:55.263Z,89.12
2023-05-06T00:57:55.297Z,89.12
2023-05-06T00:58:55.251Z,89.31
2023-05-06T00:59:55.261Z,89.69
2023-05-06T01:00:55.385Z,89.69
2023-05-06T01:01:55.291Z,88.92
2023-05-06T01:02:55.292Z,89.31
2023-05-06T01:03:55.595Z,88.73
2023-05-06T01:04:55.377Z,89.12
2023-05-06T01:05:55.239Z,88.98
2023-05-06T01:06:55.250Z,88.83
2023-05-06T01:07:55.230Z,89.07
2023-05-06T01:08:55.221Z,89.45
2023-05-06T01:09:55.250Z,89.17
2023-05-06T01:10:55.274Z,89.45
2023-05-06T01:11:55.240Z,90.03
2023-05-06T01:12:55.325Z,90.03
2023-05-06T01:13:55.251Z,90.03
2023-05-06T01:14:55.232Z,90.41
2023-05-06T01:15:55.218Z,89.93
2023-05-06T01:16:55.362Z,89.45
2023-05-06T01:17:55.249Z,90.22
2023-05-06T01:18:55.214Z,90.03
2023-05-06T01:19:55.252Z,89.83
2023-05-06T01:20:55.267Z,90.12
2023-05-06T01:21:55.214Z,89.74
2023-05-06T01:22:55.178Z,89.64
2023-05-06T01:23:55.199Z,89.93
2023-05-06T01:24:55.174Z,89.74
2023-05-06T01:25:55.854Z,89.93
2023-05-06T01:26:55.279Z,89.93
2023-05-06T01:27:55.159Z,89.26
2023-05-06T01:28:55.177Z,89.26
2023-05-06T01:29:55.158Z,88.59
2023-05-06T01:30:55.177Z,89.26
2023-05-06T01:31:55.159Z,89.26
2023-05-06T01:32:55.171Z,89.07
2023-05-06T01:33:55.141Z,89.93
2023-05-06T01:34:55.178Z,90.31
2023-05-06T01:35:55.170Z,90.03
2023-05-06T01:36:55.282Z,90.50
2023-05-06T01:37:55.130Z,90.59
2023-05-06T01:38:55.131Z,90.41
2023-05-06T01:39:55.152Z,90.12
2023-05-06T01:40:55.136Z,90.03
2023-05-06T01:41:55.169Z,89.93
2023-05-06T01:42:55.157Z,90.50
2023-05-06T01:43:55.115Z,90.31
2023-05-06T01:44:55.127Z,90.50
2023-05-06T01:45:55.148Z,90.41
2023-05-06T01:46:55.109Z,90.79
2023-05-06T01:47:55.157Z,90.88
2023-05-06T01:48:55.098Z,90.59
2023-05-06T01:49:55.122Z,90.31
2023-05-06T01:50:55.152Z,90.12
2023-05-06T01:51:55.111Z,90.41
2023-05-06T01:52:55.090Z,90.59
2023-05-06T01:53:55.086Z,90.59
2023-05-06T01:54:55.078Z,90.31
2023-05-06T01:55:55.057Z,90.50
2023-05-06T01:56:55.065Z,90.88
2023-05-06T01:57:55.065Z,90.98
2023-05-06T01:58:55.857Z,90.88
2023-05-06T01:59:55.125Z,90.79
2023-05-06T02:00:55.041Z,91.27
2023-05-06T02:01:55.051Z,91.17
2023-05-06T02:02:55.154Z,91.17
2023-05-06T02:03:55.125Z,91.74
2023-05-06T02:04:55.033Z,91.27
2023-05-06T02:05:55.028Z,91.17
2023-05-06T02:06:55.016Z,91.31
2023-05-06T02:07:55.013Z,91.74
2023-05-06T02:08:55.091Z,91.69
2023-05-06T02:09:55.037Z,91.55
2023-05-06T02:10:55.038Z,91.69
2023-05-06T02:11:55.013Z,91.41
2023-05-06T02:12:55.023Z,91.46
2023-05-06T02:13:54.994Z,91.60
2023-05-06T02:14:54.989Z,91.88
2023-05-06T02:15:55.055Z,92.32
2023-05-06T02:16:55.864Z,92.12
2023-05-06T02:17:55.005Z,91.79
2023-05-06T02:18:54.992Z,92.22
2023-05-06T02:19:54.980Z,92.50
2023-05-06T02:20:54.990Z,91.60
2023-05-06T02:21:54.997Z,91.41
2023-05-06T02:22:54.972Z,91.69
2023-05-06T02:23:54.981Z,91.60
2023-05-06T02:24:55.020Z,91.13
2023-05-06T02:25:54.950Z,91.69
2023-05-06T02:26:54.970Z,91.60
2023-05-06T02:27:54.949Z,91.50
2023-05-06T02:28:54.956Z,91.69
2023-05-06T02:29:54.947Z,91.41
2023-05-06T02:30:54.939Z,91.79
2023-05-06T02:31:54.986Z,91.60
2023-05-06T02:32:54.931Z,92.46
2023-05-06T02:33:54.929Z,92.46
2023-05-06T02:34:54.918Z,93.03
2023-05-06T02:35:54.922Z,94.22
2023-05-06T02:36:54.913Z,93.46
2023-05-06T02:37:54.909Z,92.41
2023-05-06T02:38:54.944Z,91.74
2023-05-06T02:39:54.891Z,91.36
2023-05-06T02:40:54.996Z,90.88
2023-05-06T02:41:54.898Z,90.79
2023-05-06T02:42:54.920Z,90.08
2023-05-06T02:43:54.903Z,90.41
2023-05-06T02:44:54.876Z,90.55
2023-05-06T02:45:54.915Z,90.93
2023-05-06T02:46:54.892Z,91.13
2023-05-06T02:47:54.920Z,90.36
2023-05-06T02:48:54.857Z,91.41
2023-05-06T02:49:54.868Z,91.60
2023-05-06T02:50:54.856Z,90.93
2023-05-06T02:51:54.870Z,91.60
2023-05-06T02:52:54.851Z,91.22
2023-05-06T02:53:54.849Z,91.69
2023-05-06T02:54:54.856Z,91.22
2023-05-06T02:55:54.837Z,91.69
2023-05-06T02:56:54.912Z,91.69
2023-05-06T02:57:54.827Z,91.69
2023-05-06T02:58:54.857Z,91.60
2023-05-06T02:59:54.831Z,91.60
2023-05-06T03:00:54.838Z,91.60
2023-05-06T03:01:54.837Z,91.41
2023-05-06T03:02:54.820Z,91.03
2023-05-06T03:03:54.852Z,91.69
2023-05-06T03:04:54.801Z,91.60
2023-05-06T03:05:54.798Z,91.41
2023-05-06T03:06:54.804Z,91.41
2023-05-06T03:07:54.823Z,91.13
2023-05-06T03:08:54.789Z,90.55
2023-05-06T03:09:54.781Z,90.31
2023-05-06T03:10:54.798Z,91.27
2023-05-06T03:11:54.779Z,91.27
2023-05-06T03:12:54.799Z,92.22
2023-05-06T03:13:54.780Z,91.65
2023-05-06T03:14:54.773Z,91.55
2023-05-06T03:15:54.776Z,91.74
2023-05-06T03:16:54.802Z,92.22
2023-05-06T03:17:54.812Z,92.79
2023-05-06T03:18:54.742Z,92.60
2023-05-06T03:19:54.748Z,92.32
2023-05-06T03:20:54.781Z,92.32
2023-05-06T03:21:54.748Z,91.84
2023-05-06T03:22:54.737Z,92.03
2023-05-06T03:23:54.727Z,92.41
2023-05-06T03:24:54.746Z,91.55
2023-05-06T03:25:54.731Z,91.65
2023-05-06T03:26:54.735Z,91.65
2023-05-06T03:27:54.716Z,91.84
2023-05-06T03:28:54.764Z,91.55
2023-05-06T03:29:54.743Z,91.55
2023-05-06T03:30:54.704Z,91.65
2023-05-06T03:31:54.887Z,91.46
2023-05-06T03:32:54.747Z,91.08
2023-05-06T03:33:54.687Z,91.65
2023-05-06T03:34:54.681Z,91.65
2023-05-06T03:35:54.683Z,91.36
2023-05-06T03:36:54.687Z,92.41
2023-05-06T03:37:54.679Z,92.32
2023-05-06T03:38:54.672Z,92.60
2023-05-06T03:39:54.690Z,92.50
2023-05-06T03:40:54.665Z,92.03
2023-05-06T03:41:54.655Z,91.94
2023-05-06T03:42:54.664Z,91.65
2023-05-06T03:43:54.642Z,91.27
2023-05-06T03:44:54.716Z,91.65
2023-05-06T03:45:54.657Z,91.65
2023-05-06T03:46:54.641Z,91.94
2023-05-06T03:47:54.691Z,92.22
2023-05-06T03:48:54.630Z,92.13
2023-05-06T03:49:54.621Z,92.32
2023-05-06T03:50:54.614Z,92.41
2023-05-06T03:51:54.618Z,92.41
2023-05-06T03:52:54.629Z,92.69
2023-05-06T03:53:55.008Z,92.22
2023-05-06T03:54:54.588Z,92.13
2023-05-06T03:55:54.602Z,91.74
2023-05-06T03:56:54.606Z,91.65
2023-05-06T03:57:54.585Z,91.55
2023-05-06T03:58:54.602Z,90.98
2023-05-06T03:59:54.607Z,91.17
2023-05-06T04:00:54.791Z,91.65
2023-05-06T04:01:54.587Z,91.27
2023-05-06T04:02:54.638Z,91.74
2023-05-06T04:03:54.638Z,91.55
2023-05-06T04:04:55.369Z,91.36
2023-05-06T04:05:54.553Z,91.55
2023-05-06T04:06:54.552Z,91.36
2023-05-06T04:07:54.553Z,91.65
2023-05-06T04:08:54.533Z,91.51
2023-05-06T04:09:54.550Z,91.51
2023-05-06T04:10:54.533Z,92.03
2023-05-06T04:11:54.529Z,92.46
2023-05-06T04:12:54.548Z,92.18
2023-05-06T04:13:54.530Z,92.74
2023-05-06T04:14:54.522Z,92.55
2023-05-06T04:15:54.545Z,92.36
2023-05-06T04:16:54.605Z,91.99
2023-05-06T04:17:54.508Z,92.08
2023-05-06T04:18:54.502Z,92.08
2023-05-06T04:19:54.500Z,91.99
2023-05-06T04:20:54.505Z,91.31
2023-05-06T04:21:54.480Z,91.51
2023-05-06T04:22:54.477Z,91.79
2023-05-06T04:23:54.465Z,91.60
2023-05-06T04:24:54.473Z,91.70
2023-05-06T04:25:54.961Z,92.18
2023-05-06T04:26:54.464Z,92.27
2023-05-06T04:27:54.460Z,92.08
2023-05-06T04:28:54.450Z,92.27
2023-05-06T04:29:54.447Z,91.99
2023-05-06T04:30:54.437Z,91.70
2023-05-06T04:31:54.510Z,92.18
2023-05-06T04:32:54.625Z,92.18
2023-05-06T04:33:54.431Z,91.99
2023-05-06T04:34:54.422Z,92.36
2023-05-06T04:35:54.452Z,91.70
2023-05-06T04:36:54.421Z,91.70
2023-05-06T04:37:54.418Z,91.51
2023-05-06T04:38:54.404Z,91.70
2023-05-06T04:39:54.418Z,91.60
2023-05-06T04:40:54.421Z,91.51
2023-05-06T04:41:54.908Z,90.84
2023-05-06T04:42:54.392Z,91.03
2023-05-06T04:43:54.381Z,91.03
2023-05-06T04:44:54.391Z,91.51
2023-05-06T04:45:54.473Z,91.22
2023-05-06T04:46:54.379Z,91.31
2023-05-06T04:47:54.407Z,91.22
2023-05-06T04:48:54.449Z,91.03
2023-05-06T04:49:54.399Z,91.60
2023-05-06T04:50:54.363Z,91.31
2023-05-06T04:51:54.383Z,91.41
2023-05-06T04:52:54.344Z,91.22
2023-05-06T04:53:54.345Z,91.31
2023-05-06T04:54:54.348Z,90.94
2023-05-06T04:55:54.353Z,91.31
2023-05-06T04:56:54.339Z,91.51
2023-05-06T04:57:54.336Z,91.60
2023-05-06T04:58:54.337Z,90.75
2023-05-06T04:59:54.319Z,90.94
2023-05-06T05:00:54.328Z,91.03
2023-05-06T05:01:54.306Z,91.51
2023-05-06T05:02:54.373Z,91.41
2023-05-06T05:03:54.299Z,91.03
2023-05-06T05:04:54.404Z,91.13
2023-05-06T05:05:54.285Z,91.41
2023-05-06T05:06:54.299Z,90.75
2023-05-06T05:07:54.290Z,90.94
2023-05-06T05:08:55.444Z,91.03
2023-05-06T05:09:54.268Z,90.84
2023-05-06T05:10:54.279Z,90.56
2023-05-06T05:11:54.258Z,91.51
2023-05-06T05:12:54.287Z,90.75
2023-05-06T05:13:56.495Z,90.46
2023-05-06T05:14:54.256Z,90.17
2023-05-06T05:15:54.241Z,90.17
2023-05-06T05:16:55.013Z,90.17
2023-05-06T05:17:54.283Z,90.36
2023-05-06T05:18:54.893Z,90.56
2023-05-06T05:19:54.230Z,90.36
2023-05-06T05:20:54.309Z,90.36
2023-05-06T05:21:54.223Z,90.36
2023-05-06T05:22:54.222Z,89.61
2023-05-06T05:23:54.217Z,89.98
2023-05-06T05:24:54.226Z,90.08
2023-05-06T05:25:54.900Z,90.46
2023-05-06T05:26:54.212Z,90.84
2023-05-06T05:27:54.219Z,91.51
2023-05-06T05:28:54.192Z,91.51
2023-05-06T05:29:54.193Z,90.46
2023-05-06T05:30:54.197Z,91.03
2023-05-06T05:31:54.182Z,90.46
2023-05-06T05:32:54.270Z,90.08
2023-05-06T05:33:54.219Z,89.98
2023-05-06T05:34:54.196Z,89.79
2023-05-06T05:35:54.169Z,89.22
2023-05-06T05:36:54.263Z,89.79
2023-05-06T05:37:54.158Z,89.51
2023-05-06T05:38:54.150Z,90.36
2023-05-06T05:39:54.154Z,90.36
2023-05-06T05:40:54.144Z,90.17
2023-05-06T05:41:54.159Z,90.36
2023-05-06T05:42:54.136Z,89.61
2023-05-06T05:43:54.122Z,89.61
2023-05-06T05:44:54.127Z,90.17
2023-05-06T05:45:54.149Z,89.98
2023-05-06T05:46:54.619Z,90.08
2023-05-06T05:47:54.164Z,90.17
2023-05-06T05:48:54.110Z,89.89
2023-05-06T05:49:54.106Z,90.08
2023-05-06T05:50:54.125Z,89.70
2023-05-06T05:51:54.132Z,89.79
2023-05-06T05:52:54.174Z,89.98
2023-05-06T05:53:54.102Z,90.08
2023-05-06T05:54:54.163Z,90.36
2023-05-06T05:55:54.262Z,90.17
2023-05-06T05:56:54.078Z,90.36
2023-05-06T05:57:54.066Z,90.84
2023-05-06T05:58:54.072Z,90.46
2023-05-06T05:59:54.065Z,90.65
2023-05-06T06:00:54.049Z,90.84
2023-05-06T06:01:54.062Z,90.65
2023-05-06T06:02:54.153Z,90.84
2023-05-06T06:03:54.430Z,90.65
2023-05-06T06:04:54.084Z,89.98
2023-05-06T06:05:54.261Z,90.27
2023-05-06T06:06:54.023Z,89.41
2023-05-06T06:07:54.022Z,89.22
2023-05-06T06:08:54.109Z,89.22
2023-05-06T06:09:54.004Z,88.93
2023-05-06T06:10:54.142Z,89.41
2023-05-06T06:11:54.005Z,88.84
2023-05-06T06:12:54.057Z,89.13
2023-05-06T06:13:53.984Z,89.41
2023-05-06T06:14:53.997Z,89.13
2023-05-06T06:15:54.001Z,89.51
2023-05-06T06:16:53.976Z,89.13
2023-05-06T06:17:54.131Z,89.22
2023-05-06T06:18:53.994Z,88.65
2023-05-06T06:19:53.962Z,89.51
2023-05-06T06:20:53.994Z,88.93
2023-05-06T06:21:54.053Z,88.27
2023-05-06T06:22:53.951Z,88.37
2023-05-06T06:23:53.942Z,88.46
2023-05-06T06:24:54.067Z,88.65
2023-05-06T06:25:53.933Z,89.13
2023-05-06T06:26:53.958Z,89.70
2023-05-06T06:27:53.935Z,89.79
2023-05-06T06:28:53.932Z,89.03
2023-05-06T06:29:53.937Z,88.84
2023-05-06T06:30:53.933Z,88.84
2023-05-06T06:31:53.932Z,88.65
2023-05-06T06:32:53.931Z,88.84
2023-05-06T06:33:53.908Z,89.32
2023-05-06T06:34:53.908Z,89.70
2023-05-06T06:35:53.888Z,89.41
2023-05-06T06:36:53.894Z,89.89
2023-05-06T06:37:53.893Z,89.98
2023-05-06T06:38:53.884Z,90.08
2023-05-06T06:39:53.888Z,89.98
2023-05-06T06:40:53.957Z,90.17
2023-05-06T06:41:53.861Z,90.36
2023-05-06T06:42:53.870Z,90.46
2023-05-06T06:43:53.883Z,90.17
2023-05-06T06:44:53.884Z,90.08
2023-05-06T06:45:53.898Z,89.79
2023-05-06T06:46:53.842Z,89.70
2023-05-06T06:47:53.871Z,89.51
2023-05-06T06:48:53.846Z,90.27
2023-05-06T06:49:53.827Z,90.17
2023-05-06T06:50:53.826Z,89.89
2023-05-06T06:51:53.840Z,89.51
2023-05-06T06:52:53.823Z,90.17
2023-05-06T06:53:53.813Z,90.27
2023-05-06T06:54:53.810Z,89.98
2023-05-06T06:55:53.801Z,89.79
2023-05-06T06:56:53.889Z,89.32
2023-05-06T06:57:53.792Z,89.03
2023-05-06T06:58:53.827Z,89.61
2023-05-06T06:59:53.817Z,89.70
2023-05-06T07:00:53.826Z,89.70
2023-05-06T07:01:53.794Z,89.32
2023-05-06T07:02:53.796Z,89.03
2023-05-06T07:03:53.832Z,89.13
2023-05-06T07:04:54.123Z,89.41
2023-05-06T07:05:53.762Z,89.41
2023-05-06T07:06:53.768Z,89.22
2023-05-06T07:07:53.754Z,89.32
2023-05-06T07:08:53.765Z,88.84
2023-05-06T07:09:53.768Z,88.56
2023-05-06T07:10:53.742Z,88.65
2023-05-06T07:11:53.740Z,89.51
2023-05-06T07:12:53.775Z,89.13
2023-05-06T07:13:53.749Z,89.70
2023-05-06T07:14:53.735Z,89.03
2023-05-06T07:15:53.744Z,89.32
2023-05-06T07:16:53.764Z,88.93
2023-05-06T07:17:53.724Z,89.61
2023-05-06T07:18:53.736Z,89.51
2023-05-06T07:19:53.706Z,89.41
2023-05-06T07:20:53.753Z,88.84
2023-05-06T07:21:53.707Z,88.93
2023-05-06T07:22:53.688Z,89.03
2023-05-06T07:23:53.681Z,88.84
2023-05-06T07:24:53.682Z,89.13
2023-05-06T07:25:53.675Z,89.79
2023-05-06T07:26:53.667Z,90.36
2023-05-06T07:27:53.688Z,90.17
2023-05-06T07:28:53.825Z,90.17
2023-05-06T07:29:53.726Z,89.70
2023-05-06T07:30:53.773Z,89.70
2023-05-06T07:31:53.646Z,89.51
2023-05-06T07:32:53.683Z,89.79
2023-05-06T07:33:53.730Z,89.89
2023-05-06T07:34:53.636Z,89.70
2023-05-06T07:35:53.677Z,89.89
2023-05-06T07:36:53.629Z,89.61
2023-05-06T07:37:53.642Z,89.70
2023-05-06T07:38:53.619Z,89.70
2023-05-06T07:39:53.611Z,89.70
2023-05-06T07:40:53.621Z,89.13
2023-05-06T07:41:53.614Z,89.32
2023-05-06T07:42:53.618Z,89.41
2023-05-06T07:43:53.596Z,89.32
2023-05-06T07:44:53.631Z,89.41
2023-05-06T07:45:53.641Z,89.70
2023-05-06T07:46:53.662Z,89.61
2023-05-06T07:47:53.817Z,90.17
2023-05-06T07:48:53.575Z,90.17
2023-05-06T07:49:53.576Z,90.27
2023-05-06T07:50:53.565Z,90.17
2023-05-06T07:51:53.576Z,90.56
2023-05-06T07:52:53.602Z,90.17
2023-05-06T07:53:53.561Z,90.84
2023-05-06T07:54:53.557Z,90.36
2023-05-06T07:55:53.548Z,90.36
2023-05-06T07:56:53.551Z,90.36
2023-05-06T07:57:53.542Z,90.12
2023-05-06T07:58:53.545Z,90.27
2023-05-06T07:59:53.527Z,90.08
2023-05-06T08:00:53.600Z,90.17
2023-05-06T08:01:53.528Z,89.65
2023-05-06T08:02:53.634Z,89.70
2023-05-06T08:03:53.598Z,89.79
2023-05-06T08:04:53.629Z,89.79
2023-05-06T08:05:53.498Z,89.70
2023-05-06T08:06:53.498Z,89.89
2023-05-06T08:07:53.498Z,90.36
2023-05-06T08:08:53.546Z,90.17
2023-05-06T08:09:53.506Z,90.46
2023-05-06T08:10:53.476Z,90.56
2023-05-06T08:11:53.512Z,90.27
2023-05-06T08:12:53.557Z,90.84
2023-05-06T08:13:53.533Z,90.84
2023-05-06T08:14:53.491Z,90.46
2023-05-06T08:15:53.580Z,91.13
2023-05-06T08:16:53.569Z,91.22
2023-05-06T08:17:53.520Z,90.94
2023-05-06T08:18:53.484Z,91.13
2023-05-06T08:19:53.495Z,91.31
2023-05-06T08:20:53.603Z,91.60
2023-05-06T08:21:53.501Z,91.60
2023-05-06T08:22:53.451Z,92.08
2023-05-06T08:23:53.478Z,92.36
2023-05-06T08:24:53.457Z,92.36
2023-05-06T08:25:53.445Z,92.36
2023-05-06T08:26:53.442Z,91.89
2023-05-06T08:27:53.401Z,92.08
2023-05-06T08:28:53.448Z,92.18
2023-05-06T08:29:53.430Z,91.79
2023-05-06T08:30:53.398Z,92.18
2023-05-06T08:31:53.520Z,92.32
2023-05-06T08:32:53.422Z,92.22
2023-05-06T08:33:54.644Z,92.22
2023-05-06T08:34:53.448Z,92.32
2023-05-06T08:35:53.399Z,92.22
2023-05-06T08:36:53.368Z,92.98
2023-05-06T08:37:53.371Z,94.41
2023-05-06T08:38:53.434Z,94.98
2023-05-06T08:39:53.366Z,95.22
2023-05-06T08:40:53.376Z,95.22
2023-05-06T08:41:53.362Z,95.12
2023-05-06T08:42:53.351Z,94.41
2023-05-06T08:43:53.348Z,91.83
2023-05-06T08:44:53.349Z,90.22
2023-05-06T08:45:53.416Z,89.07
2023-05-06T08:46:53.340Z,88.74
2023-05-06T08:47:53.378Z,87.93
2023-05-06T08:48:53.423Z,87.98
2023-05-06T08:49:53.348Z,87.69
2023-05-06T08:50:53.340Z,88.55
2023-05-06T08:51:53.382Z,89.22
2023-05-06T08:52:53.325Z,89.22
2023-05-06T08:53:53.304Z,89.75
2023-05-06T08:54:53.366Z,90.41
2023-05-06T08:55:53.336Z,90.22
2023-05-06T08:56:53.324Z,90.98
2023-05-06T08:57:53.297Z,91.46
2023-05-06T08:58:53.278Z,91.65
2023-05-06T08:59:53.305Z,91.55
2023-05-06T09:00:53.289Z,91.65
2023-05-06T09:01:53.286Z,91.65
2023-05-06T09:02:53.404Z,92.41
2023-05-06T09:03:53.317Z,91.84
2023-05-06T09:04:53.325Z,92.60
2023-05-06T09:05:53.248Z,92.60
2023-05-06T09:06:53.261Z,92.69
2023-05-06T09:07:53.232Z,92.41
2023-05-06T09:08:53.238Z,92.41
2023-05-06T09:09:53.252Z,92.98
2023-05-06T09:10:53.228Z,93.17
2023-05-06T09:11:53.221Z,93.27
2023-05-06T09:12:53.252Z,93.46
2023-05-06T09:13:53.228Z,93.84
2023-05-06T09:14:53.235Z,94.03
2023-05-06T09:15:53.210Z,95.17
2023-05-06T09:16:53.499Z,96.84
2023-05-06T09:17:53.245Z,96.56
2023-05-06T09:18:53.196Z,95.98
2023-05-06T09:19:53.210Z,95.27
2023-05-06T09:20:53.294Z,93.93
2023-05-06T09:21:53.208Z,91.60
2023-05-06T09:22:53.177Z,90.83
2023-05-06T09:23:53.236Z,90.17
2023-05-06T09:24:53.215Z,88.83
2023-05-06T09:25:53.169Z,88.16
2023-05-06T09:26:53.194Z,87.11
2023-05-06T09:27:53.170Z,87.02
2023-05-06T09:28:53.154Z,87.30
2023-05-06T09:29:53.153Z,87.35
2023-05-06T09:30:53.179Z,86.87
2023-05-06T09:31:53.153Z,86.39
2023-05-06T09:32:53.166Z,86.20
2023-05-06T09:33:53.155Z,85.05
2023-05-06T09:34:53.129Z,86.10
2023-05-06T09:35:53.125Z,87.39
2023-05-06T09:36:53.251Z,87.39
2023-05-06T09:37:53.144Z,86.43
2023-05-06T09:38:53.139Z,85.86
2023-05-06T09:39:53.118Z,84.81
2023-05-06T09:40:53.115Z,84.52
2023-05-06T09:41:53.123Z,84.72
2023-05-06T09:42:53.117Z,85.38
2023-05-06T09:43:53.129Z,84.72
2023-05-06T09:44:53.107Z,83.76
2023-05-06T09:45:53.140Z,83.09
2023-05-06T09:46:53.116Z,82.90
2023-05-06T09:47:53.151Z,82.65
2023-05-06T09:48:53.096Z,81.85
2023-05-06T09:49:53.093Z,81.95
2023-05-06T09:50:53.084Z,82.28
2023-05-06T09:51:53.082Z,81.32
2023-05-06T09:52:53.159Z,80.61
2023-05-06T09:53:53.106Z,80.61
2023-05-06T09:54:53.074Z,80.80
2023-05-06T09:55:53.104Z,80.61
2023-05-06T09:56:53.083Z,80.80
2023-05-06T09:57:54.444Z,80.22
2023-05-06T09:58:53.051Z,80.32
2023-05-06T09:59:53.072Z,79.90
2023-05-06T10:00:53.048Z,80.47
2023-05-06T10:01:53.104Z,81.52
2023-05-06T10:02:53.200Z,81.86
2023-05-06T10:03:53.227Z,82.53
2023-05-06T10:04:53.145Z,83.77
2023-05-06T10:05:53.192Z,83.96
2023-05-06T10:06:53.030Z,84.06
2023-05-06T10:07:53.032Z,84.34
2023-05-06T10:08:53.029Z,85.30
2023-05-06T10:09:53.023Z,85.87
2023-05-06T10:10:53.037Z,85.64
2023-05-06T10:11:53.016Z,85.93
2023-05-06T10:12:53.116Z,86.78
2023-05-06T10:13:53.020Z,87.26
2023-05-06T10:14:53.009Z,87.35
2023-05-06T10:15:53.045Z,87.45
2023-05-06T10:16:52.993Z,87.54
2023-05-06T10:17:53.038Z,87.35
2023-05-06T10:18:53.004Z,87.26
2023-05-06T10:19:52.997Z,87.83
2023-05-06T10:20:52.999Z,87.64
2023-05-06T10:21:52.990Z,87.64
2023-05-06T10:22:52.975Z,88.31
2023-05-06T10:23:52.985Z,88.02
2023-05-06T10:24:53.046Z,88.36
2023-05-06T10:25:52.968Z,88.64
2023-05-06T10:26:53.963Z,88.45
2023-05-06T10:27:52.966Z,88.74
2023-05-06T10:28:52.960Z,89.22
2023-05-06T10:29:52.948Z,89.31
2023-05-06T10:30:52.945Z,89.22
2023-05-06T10:31:52.981Z,88.98
2023-05-06T10:32:52.961Z,89.22
2023-05-06T10:33:52.988Z,89.60
2023-05-06T10:34:52.945Z,89.22
2023-05-06T10:35:52.920Z,89.40
2023-05-06T10:36:52.920Z,89.50
2023-05-06T10:37:52.949Z,90.08
2023-05-06T10:38:52.922Z,89.79
2023-05-06T10:39:52.914Z,90.26
2023-05-06T10:40:53.044Z,90.26
2023-05-06T10:41:52.912Z,90.93
2023-05-06T10:42:52.924Z,90.64
2023-05-06T10:43:52.910Z,90.84
2023-05-06T10:44:52.882Z,91.03
2023-05-06T10:45:52.953Z,90.74
2023-05-06T10:46:52.872Z,91.03
2023-05-06T10:47:52.932Z,91.31
2023-05-06T10:48:52.905Z,91.22
2023-05-06T10:49:52.866Z,91.13
2023-05-06T10:50:52.867Z,91.60
2023-05-06T10:51:52.877Z,91.50
2023-05-06T10:52:52.868Z,91.03
2023-05-06T10:53:52.853Z,90.93
2023-05-06T10:54:52.854Z,90.55
2023-05-06T10:55:52.845Z,90.64
2023-05-06T10:56:52.973Z,90.64
2023-05-06T10:57:52.836Z,91.41
2023-05-06T10:58:52.841Z,91.50
2023-05-06T10:59:52.834Z,91.69
2023-05-06T11:00:52.858Z,91.41
2023-05-06T11:01:52.828Z,91.50
2023-05-06T11:02:52.944Z,91.88
2023-05-06T11:03:52.821Z,92.08
2023-05-06T11:04:52.933Z,91.98
2023-05-06T11:05:52.805Z,91.69
2023-05-06T11:06:53.469Z,91.60
2023-05-06T11:07:52.813Z,92.17
2023-05-06T11:08:52.813Z,92.46
2023-05-06T11:09:52.803Z,91.98
2023-05-06T11:10:52.785Z,91.46
2023-05-06T11:11:52.803Z,91.50
2023-05-06T11:12:53.003Z,91.79
2023-05-06T11:13:52.791Z,91.88
2023-05-06T11:14:52.778Z,91.79
2023-05-06T11:15:52.787Z,92.08
2023-05-06T11:16:52.833Z,92.46
2023-05-06T11:17:52.799Z,92.03
2023-05-06T11:18:52.757Z,92.46
2023-05-06T11:19:52.751Z,91.94
2023-05-06T11:20:52.758Z,91.55
2023-05-06T11:21:52.745Z,91.36
2023-05-06T11:22:52.755Z,92.22
2023-05-06T11:23:52.749Z,92.13
2023-05-06T11:24:52.732Z,92.32
2023-05-06T11:25:52.726Z,92.41
2023-05-06T11:26:52.731Z,92.69
2023-05-06T11:27:52.744Z,92.41
2023-05-06T11:28:52.800Z,92.32
2023-05-06T11:29:52.724Z,92.69
2023-05-06T11:30:52.743Z,92.98
2023-05-06T11:31:52.714Z,92.98
2023-05-06T11:32:52.784Z,93.08
2023-05-06T11:33:53.473Z,93.08
2023-05-06T11:34:52.707Z,93.08
2023-05-06T11:35:52.692Z,93.08
2023-05-06T11:36:52.689Z,93.17
2023-05-06T11:37:52.794Z,93.27
2023-05-06T11:38:52.904Z,92.79
2023-05-06T11:39:52.692Z,92.69
2023-05-06T11:40:52.682Z,92.69
2023-05-06T11:41:52.675Z,92.69
2023-05-06T11:42:52.656Z,93.27
2023-05-06T11:43:52.732Z,93.08
2023-05-06T11:44:53.482Z,93.08
2023-05-06T11:45:52.668Z,93.08
2023-05-06T11:46:52.737Z,92.32
2023-05-06T11:47:52.748Z,91.94
2023-05-06T11:48:52.658Z,92.41
2023-05-06T11:49:52.650Z,92.03
2023-05-06T11:50:52.635Z,91.94
2023-05-06T11:51:52.631Z,92.03
2023-05-06T11:52:52.628Z,92.13
2023-05-06T11:53:52.624Z,92.41
2023-05-06T11:54:52.624Z,92.32
2023-05-06T11:55:52.616Z,92.13
2023-05-06T11:56:52.614Z,92.41
2023-05-06T11:57:52.601Z,92.50
2023-05-06T11:58:52.599Z,92.50
2023-05-06T11:59:52.624Z,92.98
2023-05-06T12:00:52.656Z,93.08
2023-05-06T12:01:52.594Z,93.08
2023-05-06T12:02:52.695Z,92.32
2023-05-06T12:03:52.671Z,92.41
2023-05-06T12:04:52.723Z,92.60
2023-05-06T12:05:52.623Z,92.41
2023-05-06T12:06:52.586Z,91.94
2023-05-06T12:07:52.586Z,91.36
2023-05-06T12:08:52.568Z,91.74
2023-05-06T12:09:52.567Z,92.03
2023-05-06T12:10:52.547Z,92.41
2023-05-06T12:11:52.560Z,91.74
2023-05-06T12:12:52.558Z,91.46
2023-05-06T12:13:52.536Z,91.55
2023-05-06T12:14:52.547Z,91.65
2023-05-06T12:15:52.566Z,91.84
2023-05-06T12:16:54.749Z,92.22
2023-05-06T12:17:52.615Z,92.22
2023-05-06T12:18:52.534Z,92.32
2023-05-06T12:19:52.513Z,92.50
2023-05-06T12:20:52.523Z,94.13
2023-05-06T12:21:52.502Z,94.51
2023-05-06T12:22:53.787Z,94.56
2023-05-06T12:23:52.617Z,94.65
2023-05-06T12:24:52.501Z,94.56
2023-05-06T12:25:52.504Z,94.41
2023-05-06T12:26:52.488Z,93.17
2023-05-06T12:27:52.474Z,91.55
2023-05-06T12:28:52.532Z,90.98
2023-05-06T12:29:52.482Z,89.93
2023-05-06T12:30:52.462Z,89.59
2023-05-06T12:31:52.470Z,88.35
2023-05-06T12:32:52.582Z,87.68
2023-05-06T12:33:53.314Z,86.82
2023-05-06T12:34:52.455Z,86.92
2023-05-06T12:35:52.453Z,86.63
2023-05-06T12:36:52.482Z,85.87
2023-05-06T12:37:52.453Z,83.67
2023-05-06T12:38:52.436Z,82.53
2023-05-06T12:39:52.445Z,81.96
2023-05-06T12:40:52.506Z,81.77
2023-05-06T12:41:52.435Z,82.30
2023-05-06T12:42:52.418Z,83.16
2023-05-06T12:43:52.432Z,83.25
2023-05-06T12:44:52.443Z,83.35
2023-05-06T12:45:52.470Z,83.54
2023-05-06T12:46:52.409Z,84.11
2023-05-06T12:47:52.481Z,84.64
2023-05-06T12:48:52.474Z,85.21
2023-05-06T12:49:52.407Z,85.41
2023-05-06T12:50:52.385Z,85.88
2023-05-06T12:51:52.435Z,85.41
2023-05-06T12:52:52.402Z,86.16